VIJP/JAI METAR and TAF weather

Enter ICAO airport designator
Station Type Date Time Source
VIJP METAR 2023/12/09 01:30 UTC NOAA

VIJP 090130Z 00000KT 1600 BR NSC 14/11 Q1019 NOSIG


Station Type Date Time Source
VIJP Decoded METAR 2023/12/09 01:30 UTC NOAA

Jaipur / Sanganer, India (VIJP) 26-49N 075-48E 390M
Dec 08, 2023 - 08:30 PM EST / 2023.12.09 0130 UTC
Wind: Calm:0
Visibility: less than 1 mile:0
Weather: mist
Temperature: 57 F (14 C)
Dew Point: 51 F (11 C)
Relative Humidity: 82%
Pressure (altimeter): 30.09 in. Hg (1019 hPa)
ob: VIJP 090130Z 00000KT 1600 BR NSC 14/11 Q1019 NOSIG
cycle: 1

Station Type Date Time Source
VIJP TAF 2023/12/08 18:00 UTC NOAA

TAF VIJP 081700Z 0818/0924 VRB03KT 2000 HZ BR NSC
BECMG 0904/0906 VRB02KT 3000 HZ
BECMG 0914/0916 2000 HZ BR

Example: see airport list